createdAt,value
2019-04-01T00:02:09.394Z,2.98
2019-04-01T00:04:37.843Z,3.00
2019-04-01T00:07:06.300Z,3.10
2019-04-01T00:09:34.748Z,4.97
2019-04-01T00:12:03.194Z,4.20
2019-04-01T00:14:31.628Z,3.90
2019-04-01T00:17:00.080Z,2.87
2019-04-01T00:19:28.530Z,3.65
2019-04-01T00:21:56.956Z,3.47
2019-04-01T00:24:25.496Z,4.00
2019-04-01T00:26:53.956Z,4.92
2019-04-01T00:29:22.386Z,6.00
2019-04-01T00:31:50.816Z,7.75
2019-04-01T00:34:19.284Z,4.83
2019-04-01T00:36:47.726Z,5.12
2019-04-01T00:39:16.160Z,4.60
2019-04-01T00:41:48.918Z,3.85
2019-04-01T00:44:17.358Z,3.77
2019-04-01T00:46:45.800Z,4.10
2019-04-01T00:49:14.291Z,4.60
2019-04-01T00:51:42.748Z,5.45
2019-04-01T00:54:11.174Z,3.90
2019-04-01T00:56:39.599Z,3.75
2019-04-01T00:59:08.049Z,3.30
2019-04-01T01:01:36.479Z,2.62
2019-04-01T01:04:04.904Z,3.00
2019-04-01T01:06:33.351Z,2.98
2019-04-01T01:09:01.796Z,2.90
2019-04-01T01:11:30.200Z,3.00
2019-04-01T01:13:58.654Z,2.95
2019-04-01T01:16:27.099Z,3.42
2019-04-01T01:18:55.552Z,2.77
2019-04-01T01:21:25.559Z,3.50
2019-04-01T01:23:54.013Z,3.95
2019-04-01T01:26:22.448Z,3.05
2019-04-01T01:28:50.912Z,3.22
2019-04-01T01:31:19.320Z,3.30
2019-04-01T01:33:47.744Z,3.20
2019-04-01T01:36:16.202Z,3.40
2019-04-01T01:38:44.655Z,3.30
2019-04-01T01:41:13.070Z,2.60
2019-04-01T01:43:41.519Z,3.37
2019-04-01T01:46:09.954Z,3.45
2019-04-01T01:48:38.405Z,2.92
2019-04-01T01:51:06.840Z,3.17
2019-04-01T01:53:35.294Z,2.90
2019-04-01T01:56:03.768Z,3.02
2019-04-01T01:58:32.189Z,3.60
2019-04-01T02:01:00.622Z,4.08
2019-04-01T02:03:29.090Z,8.30
2019-04-01T02:05:57.534Z,5.35
2019-04-01T02:08:26.012Z,9.78
2019-04-01T02:10:54.453Z,11.08
2019-04-01T02:13:22.906Z,12.75
2019-04-01T02:15:51.364Z,8.93
2019-04-01T02:18:19.809Z,6.37
2019-04-01T02:20:48.233Z,6.05
2019-04-01T02:23:16.716Z,8.75
2019-04-01T02:25:45.246Z,8.40
2019-04-01T02:28:13.681Z,7.72
2019-04-01T02:30:42.121Z,6.50
2019-04-01T02:33:10.578Z,5.58
2019-04-01T02:35:39.039Z,3.85
2019-04-01T02:38:07.480Z,3.10
2019-04-01T02:40:36.101Z,3.25
2019-04-01T02:43:04.675Z,3.40
2019-04-01T02:45:33.131Z,3.25
2019-04-01T02:48:01.578Z,3.10
2019-04-01T02:50:30.002Z,2.98
2019-04-01T02:52:58.483Z,3.45
2019-04-01T02:55:26.899Z,3.98
2019-04-01T02:57:55.322Z,4.42
2019-04-01T03:00:23.778Z,3.87
2019-04-01T03:02:52.233Z,4.40
2019-04-01T03:05:20.688Z,3.60
2019-04-01T03:07:49.119Z,3.25
2019-04-01T03:10:17.548Z,4.25
2019-04-01T03:12:46.003Z,2.98
2019-04-01T03:15:14.456Z,3.67
2019-04-01T03:17:42.887Z,3.52
2019-04-01T03:20:11.507Z,4.90
2019-04-01T03:22:39.973Z,4.55
2019-04-01T03:25:08.581Z,6.45
2019-04-01T03:27:37.036Z,5.70
2019-04-01T03:30:06.322Z,5.85
2019-04-01T03:32:34.780Z,5.70
2019-04-01T03:35:03.329Z,6.30
2019-04-01T03:37:31.749Z,6.17
2019-04-01T03:40:00.629Z,7.35
2019-04-01T03:42:29.235Z,7.17
2019-04-01T03:44:57.673Z,6.37
2019-04-01T03:47:26.138Z,4.72
2019-04-01T03:49:54.601Z,5.22
2019-04-01T03:52:23.047Z,5.42
2019-04-01T03:54:51.503Z,5.95
2019-04-01T03:57:19.949Z,6.15
2019-04-01T03:59:48.430Z,5.58
2019-04-01T04:02:16.894Z,5.45
2019-04-01T04:04:45.329Z,6.30
2019-04-01T04:07:13.801Z,6.08
2019-04-01T04:09:42.226Z,7.00
2019-04-01T04:12:10.683Z,5.90
2019-04-01T04:14:39.167Z,7.33
2019-04-01T04:17:07.614Z,5.60
2019-04-01T04:19:36.075Z,6.17
2019-04-01T04:22:04.515Z,6.53
2019-04-01T04:24:32.980Z,7.12
2019-04-01T04:27:01.418Z,6.72
2019-04-01T04:29:29.851Z,7.12
2019-04-01T04:31:58.333Z,6.65
2019-04-01T04:34:26.979Z,8.78
2019-04-01T04:36:55.476Z,9.23
2019-04-01T04:39:23.938Z,6.67
2019-04-01T04:41:52.401Z,5.72
2019-04-01T04:44:21.009Z,7.08
2019-04-01T04:46:49.862Z,6.42
2019-04-01T04:49:18.303Z,7.95
2019-04-01T04:51:46.831Z,5.72
2019-04-01T04:54:15.294Z,4.55
2019-04-01T04:56:43.737Z,7.22
2019-04-01T04:59:12.207Z,5.72
2019-04-01T05:01:40.639Z,5.20
2019-04-01T05:04:09.105Z,4.03
2019-04-01T05:06:37.581Z,4.50
2019-04-01T05:09:06.700Z,4.42
2019-04-01T05:11:35.164Z,11.10
2019-04-01T05:14:03.707Z,10.55
2019-04-01T05:16:32.152Z,6.28
2019-04-01T05:19:00.607Z,11.10
2019-04-01T05:21:30.258Z,7.45
2019-04-01T05:23:59.174Z,6.50
2019-04-01T05:26:28.091Z,5.15
2019-04-01T05:28:58.385Z,6.95
2019-04-01T05:31:28.757Z,6.37
2019-04-01T05:34:00.257Z,5.62
2019-04-01T05:36:28.863Z,6.87
2019-04-01T05:38:57.769Z,5.55
2019-04-01T05:41:26.327Z,5.50
2019-04-01T05:43:55.035Z,6.22
2019-04-01T05:46:23.467Z,5.30
2019-04-01T05:48:52.102Z,5.70
2019-04-01T05:51:20.574Z,5.58
2019-04-01T05:53:49.610Z,5.70
2019-04-01T05:56:18.008Z,5.20
2019-04-01T05:58:46.473Z,5.30
2019-04-01T06:01:25.585Z,4.85
2019-04-01T06:03:54.051Z,4.53
2019-04-01T06:06:22.471Z,5.00
2019-04-01T06:08:50.905Z,4.25
2019-04-01T06:11:19.380Z,4.20
2019-04-01T06:13:47.913Z,15.30
2019-04-01T06:16:16.555Z,5.17
2019-04-01T06:18:45.105Z,4.70
2019-04-01T06:21:14.716Z,4.78
2019-04-01T06:23:43.226Z,4.97
2019-04-01T06:26:11.856Z,4.70
2019-04-01T06:28:40.304Z,4.25
2019-04-01T06:31:08.842Z,4.80
2019-04-01T06:33:37.335Z,4.58
2019-04-01T06:36:05.801Z,6.00
2019-04-01T06:38:34.314Z,5.17
2019-04-01T06:41:02.782Z,4.58
2019-04-01T06:43:31.238Z,5.47
2019-04-01T06:45:59.693Z,6.62
2019-04-01T06:48:35.663Z,6.53
2019-04-01T06:51:04.313Z,4.17
2019-04-01T06:53:32.776Z,5.05
2019-04-01T06:56:01.237Z,6.40
2019-04-01T06:58:29.697Z,3.95
2019-04-01T07:00:58.300Z,4.15
2019-04-01T07:03:26.771Z,5.30
2019-04-01T07:05:55.210Z,4.53
2019-04-01T07:08:23.674Z,5.95
2019-04-01T07:10:52.111Z,5.37
2019-04-01T07:13:20.581Z,4.83
2019-04-01T07:15:49.007Z,4.03
2019-04-01T07:18:17.610Z,3.90
2019-04-01T07:20:46.123Z,3.58
2019-04-01T07:23:14.630Z,3.50
2019-04-01T07:25:43.146Z,3.42
2019-04-01T07:28:11.615Z,3.60
2019-04-01T07:30:41.861Z,3.55
2019-04-01T07:33:10.335Z,3.67
2019-04-01T07:35:38.795Z,3.42
2019-04-01T07:38:07.296Z,3.15
2019-04-01T07:40:35.963Z,3.20
2019-04-01T07:43:04.740Z,3.77
2019-04-01T07:45:33.181Z,3.22
2019-04-01T07:48:01.637Z,2.95
2019-04-01T07:50:30.142Z,3.10
2019-04-01T07:52:58.616Z,2.62
2019-04-01T07:55:27.140Z,2.98
2019-04-01T07:57:55.560Z,4.60
2019-04-01T08:00:24.886Z,4.67
2019-04-01T08:02:53.359Z,2.60
2019-04-01T08:05:21.803Z,3.08
2019-04-01T08:07:50.276Z,3.08
2019-04-01T08:10:19.001Z,2.80
2019-04-01T08:12:47.453Z,2.40
2019-04-01T08:15:16.388Z,2.90
2019-04-01T08:17:44.995Z,2.80
2019-04-01T08:20:15.288Z,2.17
2019-04-01T08:22:43.770Z,5.40
2019-04-01T08:25:12.239Z,5.45
2019-04-01T08:27:40.659Z,2.30
2019-04-01T08:30:09.668Z,2.40
2019-04-01T08:32:38.107Z,2.65
2019-04-01T08:35:07.239Z,2.10
2019-04-01T08:37:35.847Z,2.65
2019-04-01T08:40:06.145Z,2.87
2019-04-01T08:42:36.140Z,2.60
2019-04-01T08:45:07.352Z,1.92
2019-04-01T08:47:35.832Z,2.22
2019-04-01T08:50:06.460Z,2.52
2019-04-01T08:52:35.107Z,2.87
2019-04-01T08:55:05.274Z,2.30
2019-04-01T08:57:33.890Z,2.72
2019-04-01T09:00:02.432Z,2.80
2019-04-01T09:02:31.060Z,3.80
2019-04-01T09:05:00.384Z,2.50
2019-04-01T09:07:28.843Z,3.10
2019-04-01T09:09:58.288Z,2.47
2019-04-01T09:12:27.977Z,3.13
2019-04-01T09:14:57.763Z,2.10
2019-04-01T09:17:26.450Z,2.67
2019-04-01T09:19:54.896Z,2.33
2019-04-01T09:22:23.361Z,1.97
2019-04-01T09:24:51.782Z,4.07
2019-04-01T09:27:20.255Z,4.20
2019-04-01T09:29:48.675Z,2.67
2019-04-01T09:32:17.117Z,3.07
2019-04-01T09:34:45.610Z,3.77
2019-04-01T09:37:14.051Z,2.20
2019-04-01T09:39:42.475Z,2.17
2019-04-01T09:42:10.938Z,5.27
2019-04-01T09:44:39.381Z,2.17
2019-04-01T09:47:07.835Z,2.37
2019-04-01T09:49:36.298Z,2.77
2019-04-01T09:52:04.817Z,2.97
2019-04-01T09:54:33.279Z,2.10
2019-04-01T09:57:16.115Z,2.83
2019-04-01T09:59:31.961Z,2.43
2019-04-01T10:02:00.426Z,2.60
2019-04-01T10:04:28.870Z,2.23
2019-04-01T10:06:57.345Z,2.10
2019-04-01T10:09:25.809Z,2.43
2019-04-01T10:11:54.394Z,2.77
2019-04-01T10:14:22.870Z,2.23
2019-04-01T10:16:51.297Z,2.17
2019-04-01T10:19:19.926Z,2.30
2019-04-01T10:21:49.157Z,2.20
2019-04-01T10:24:17.627Z,1.80
2019-04-01T10:26:46.098Z,2.97
2019-04-01T10:29:14.529Z,5.13
2019-04-01T10:31:43.002Z,4.77
2019-04-01T10:34:11.464Z,2.13
2019-04-01T10:36:39.919Z,2.50
2019-04-01T10:39:08.423Z,2.73
2019-04-01T10:41:36.944Z,3.10
2019-04-01T10:44:05.392Z,2.43
2019-04-01T10:46:33.932Z,2.63
2019-04-01T10:49:02.369Z,2.10
2019-04-01T10:51:30.841Z,2.43
2019-04-01T10:53:59.277Z,2.43
2019-04-01T10:56:27.755Z,3.77
2019-04-01T10:58:57.101Z,2.53
2019-04-01T11:01:25.536Z,1.90
2019-04-01T11:03:54.043Z,2.10
2019-04-01T11:06:22.439Z,2.30
2019-04-01T11:08:51.007Z,3.97
2019-04-01T11:11:19.470Z,2.20
2019-04-01T11:13:51.562Z,2.93
2019-04-01T11:16:18.408Z,2.63
2019-04-01T11:18:46.875Z,2.73
2019-04-01T11:21:15.349Z,5.77
2019-04-01T11:23:43.784Z,2.50
2019-04-01T11:26:12.241Z,2.13
2019-04-01T11:28:40.689Z,2.10
2019-04-01T11:31:09.182Z,2.53
2019-04-01T11:33:37.623Z,1.83
2019-04-01T11:36:06.133Z,2.93
2019-04-01T11:38:34.669Z,2.50
2019-04-01T11:41:03.208Z,2.40
2019-04-01T11:43:35.350Z,2.57
2019-04-01T11:46:02.182Z,2.17
2019-04-01T11:48:30.649Z,2.10
2019-04-01T11:50:59.124Z,1.70
2019-04-01T11:53:27.775Z,6.13
2019-04-01T11:55:56.220Z,1.97
2019-04-01T11:58:24.666Z,5.30
2019-04-01T12:00:53.210Z,2.00
2019-04-01T12:03:21.648Z,2.70
2019-04-01T12:05:50.076Z,2.00
2019-04-01T12:08:18.572Z,2.20
2019-04-01T12:10:47.006Z,2.70
2019-04-01T12:13:15.437Z,2.17
2019-04-01T12:15:43.904Z,2.30
2019-04-01T12:18:12.350Z,2.03
2019-04-01T12:20:40.860Z,2.80
2019-04-01T12:23:09.490Z,2.60
2019-04-01T12:25:39.839Z,2.17
2019-04-01T12:28:08.327Z,2.20
2019-04-01T12:30:36.779Z,2.17
2019-04-01T12:33:05.246Z,3.90
2019-04-01T12:35:34.102Z,4.37
2019-04-01T12:38:02.554Z,6.37
2019-04-01T12:40:31.127Z,2.50
2019-04-01T12:42:59.559Z,3.50
2019-04-01T12:45:28.036Z,2.30
2019-04-01T12:47:56.530Z,3.37
2019-04-01T12:50:24.983Z,2.07
2019-04-01T12:52:53.438Z,1.87
2019-04-01T12:55:21.932Z,2.30
2019-04-01T12:57:51.008Z,2.57
2019-04-01T13:00:19.904Z,4.93
2019-04-01T13:02:49.487Z,3.17
2019-04-01T13:05:18.018Z,2.87
2019-04-01T13:07:46.487Z,2.60
2019-04-01T13:10:15.093Z,2.20
2019-04-01T13:12:43.608Z,3.03
2019-04-01T13:15:12.976Z,1.83
2019-04-01T13:17:41.791Z,2.23
2019-04-01T13:20:10.821Z,2.37
2019-04-01T13:22:39.265Z,2.40
2019-04-01T13:25:08.171Z,2.07
2019-04-01T13:27:36.645Z,2.20
2019-04-01T13:30:07.198Z,2.40
2019-04-01T13:32:35.669Z,2.03
2019-04-01T13:35:07.647Z,2.13
2019-04-01T13:37:36.111Z,2.30
2019-04-01T13:40:05.981Z,2.23
2019-04-01T13:42:34.508Z,3.33
2019-04-01T13:45:03.144Z,2.17
2019-04-01T13:47:31.604Z,5.20
2019-04-01T13:50:00.090Z,2.37
2019-04-01T13:52:28.551Z,2.47
2019-04-01T13:54:56.998Z,2.10
2019-04-01T13:57:25.594Z,2.17
2019-04-01T13:59:54.048Z,2.53
2019-04-01T14:02:22.517Z,1.93
2019-04-01T14:04:50.995Z,1.77
2019-04-01T14:07:19.457Z,1.80
2019-04-01T14:09:47.919Z,1.70
2019-04-01T14:12:16.356Z,1.80
2019-04-01T14:14:44.826Z,1.80
2019-04-01T14:17:13.267Z,2.50
2019-04-01T14:19:41.698Z,2.37
2019-04-01T14:22:10.181Z,2.90
2019-04-01T14:24:38.641Z,3.77
2019-04-01T14:27:07.073Z,3.17
2019-04-01T14:29:36.564Z,2.30
2019-04-01T14:32:05.257Z,2.90
2019-04-01T14:34:33.731Z,2.20
2019-04-01T14:37:04.850Z,2.47
2019-04-01T14:39:34.794Z,2.23
2019-04-01T14:42:02.758Z,2.43
2019-04-01T14:44:31.216Z,2.20
2019-04-01T14:46:59.686Z,2.07
2019-04-01T14:49:28.136Z,4.63
2019-04-01T14:51:56.560Z,2.23
2019-04-01T14:54:25.014Z,2.63
2019-04-01T14:56:53.461Z,2.73
2019-04-01T14:59:21.939Z,2.10
2019-04-01T15:01:50.388Z,1.97
2019-04-01T15:04:18.817Z,2.90
2019-04-01T15:06:47.465Z,2.00
2019-04-01T15:09:17.305Z,2.73
2019-04-01T15:11:45.878Z,2.00
2019-04-01T15:14:14.302Z,1.80
2019-04-01T15:16:42.999Z,2.13
2019-04-01T15:19:13.032Z,2.90
2019-04-01T15:21:41.568Z,3.10
2019-04-01T15:24:10.021Z,2.27
2019-04-01T15:26:38.465Z,2.90
2019-04-01T15:29:06.942Z,2.90
2019-04-01T15:31:35.369Z,2.23
2019-04-01T15:34:03.808Z,2.40
2019-04-01T15:36:32.286Z,2.30
2019-04-01T15:39:00.821Z,2.40
2019-04-01T15:41:29.250Z,2.80
2019-04-01T15:43:57.738Z,2.97
2019-04-01T15:46:26.196Z,2.80
2019-04-01T15:48:54.629Z,4.33
2019-04-01T15:51:23.087Z,3.03
2019-04-01T15:53:51.520Z,2.83
2019-04-01T15:56:19.975Z,2.83
2019-04-01T15:58:50.800Z,3.13
2019-04-01T16:01:18.620Z,4.10
2019-04-01T16:03:47.079Z,4.10
2019-04-01T16:06:15.520Z,2.87
2019-04-01T16:08:43.988Z,2.23
